ARG1605 SAZM-SABE
Flight info
| Callsign | ARG1605 |
|---|---|
| Flight time | 0h 45m |
| Altitude | 39000 |
| Route | PULPA1G PULPA UW31 TENIL TENIL8R |
| Aircraft | E190/M-SDE3GILORVW/S |
Departure
| Time | 2026-05-07 20:59 |
|---|---|
| Airport | Ástor Piazzola International Airport (SAZM) |
Arrival
| Time | 2026-05-07 21:45 |
|---|---|
| Airport | Aeroparque Jorge Newbery (SABE) |
| Time | Latitude | Longitude | Altitude | Speed | Heading |
|---|---|---|---|---|---|
| 2026-05-07 20:36 | -37.93332 | -57.58071 | 52 ft | 0 kts | 334° |
| 2026-05-07 20:48 | -37.93253 | -57.58113 | 52 ft | 0 kts | 327° |
| 2026-05-07 20:51 | -37.93264 | -57.58103 | 52 ft | 4 kts | 329° |
| 2026-05-07 20:51 | -37.93288 | -57.58087 | 51 ft | 4 kts | 337° |
| 2026-05-07 20:51 | -37.93307 | -57.58077 | 50 ft | 0 kts | 338° |
| 2026-05-07 20:53 | -37.93301 | -57.58078 | 51 ft | 2 kts | 350° |
| 2026-05-07 20:54 | -37.93292 | -57.58074 | 52 ft | 1 kts | 29° |
| 2026-05-07 20:54 | -37.93288 | -57.58061 | 52 ft | 1 kts | 84° |
| 2026-05-07 20:54 | -37.93304 | -57.58050 | 49 ft | 5 kts | 150° |
| 2026-05-07 20:54 | -37.93351 | -57.58016 | 52 ft | 10 kts | 146° |
| 2026-05-07 20:55 | -37.93402 | -57.57930 | 52 ft | 14 kts | 120° |
| 2026-05-07 20:55 | -37.93454 | -57.57814 | 52 ft | 16 kts | 120° |
| 2026-05-07 20:55 | -37.93513 | -57.57681 | 51 ft | 18 kts | 118° |
| 2026-05-07 20:55 | -37.93578 | -57.57533 | 50 ft | 20 kts | 120° |
| 2026-05-07 20:56 | -37.93648 | -57.57371 | 49 ft | 22 kts | 117° |
| 2026-05-07 20:56 | -37.93724 | -57.57199 | 52 ft | 23 kts | 120° |
| 2026-05-07 20:56 | -37.93806 | -57.57014 | 52 ft | 25 kts | 120° |
| 2026-05-07 20:56 | -37.93883 | -57.56842 | 50 ft | 20 kts | 120° |
| 2026-05-07 20:57 | -37.93958 | -57.56680 | 52 ft | 22 kts | 118° |
| 2026-05-07 20:57 | -37.94029 | -57.56501 | 52 ft | 23 kts | 103° |
| 2026-05-07 20:57 | -37.93963 | -57.56332 | 52 ft | 21 kts | 23° |
| 2026-05-07 20:57 | -37.93902 | -57.56376 | 52 ft | 1 kts | 301° |
| 2026-05-07 20:58 | -37.93896 | -57.56388 | 49 ft | 3 kts | 301° |
| 2026-05-07 20:58 | -37.93890 | -57.56400 | 52 ft | 0 kts | 302° |
| 2026-05-07 20:58 | -37.93886 | -57.56410 | 52 ft | 3 kts | 302° |
| 2026-05-07 20:58 | -37.93837 | -57.56509 | 51 ft | 42 kts | 301° |
| 2026-05-07 20:59 | -37.93538 | -57.57104 | 52 ft | 117 kts | 302° |
| 2026-05-07 20:59 | -37.93008 | -57.58214 | 157 ft | 172 kts | 299° |
| 2026-05-07 20:59 | -37.92331 | -57.59631 | 690 ft | 206 kts | 301° |
| 2026-05-07 20:59 | -37.91510 | -57.61278 | 1412 ft | 231 kts | 300° |
| 2026-05-07 21:00 | -37.90710 | -57.62960 | 2618 ft | 219 kts | 299° |
| 2026-05-07 21:00 | -37.89939 | -57.64592 | 3531 ft | 223 kts | 296° |
| 2026-05-07 21:00 | -37.89141 | -57.66306 | 4431 ft | 234 kts | 297° |
| 2026-05-07 21:00 | -37.88262 | -57.68180 | 5115 ft | 257 kts | 298° |
| 2026-05-07 21:01 | -37.87329 | -57.70160 | 6074 ft | 266 kts | 298° |
| 2026-05-07 21:01 | -37.86358 | -57.72167 | 7246 ft | 270 kts | 303° |
| 2026-05-07 21:01 | -37.84917 | -57.73714 | 8368 ft | 279 kts | 332° |
| 2026-05-07 21:01 | -37.83015 | -57.74308 | 9343 ft | 290 kts | 354° |
| 2026-05-07 21:02 | -37.80943 | -57.74315 | 9783 ft | 302 kts | 0° |
| 2026-05-07 21:02 | -37.78834 | -57.74185 | 9754 ft | 301 kts | 2° |
| 2026-05-07 21:02 | -37.76779 | -57.73979 | 9735 ft | 290 kts | 3° |
| 2026-05-07 21:02 | -37.74816 | -57.73790 | 9544 ft | 280 kts | 2° |
| 2026-05-07 21:03 | -37.72891 | -57.73630 | 9519 ft | 280 kts | 1° |
| 2026-05-07 21:03 | -37.70909 | -57.73494 | 9577 ft | 288 kts | 1° |
| 2026-05-07 21:03 | -37.68888 | -57.73344 | 9568 ft | 294 kts | 1° |
| 2026-05-07 21:03 | -37.66844 | -57.73180 | 9562 ft | 296 kts | 2° |
| 2026-05-07 21:04 | -37.64781 | -57.73002 | 9553 ft | 297 kts | 2° |
| 2026-05-07 21:04 | -37.62731 | -57.72845 | 9556 ft | 295 kts | 1° |
| 2026-05-07 21:04 | -37.60670 | -57.72719 | 9573 ft | 298 kts | 1° |
| 2026-05-07 21:04 | -37.58600 | -57.72600 | 9548 ft | 297 kts | 1° |
| 2026-05-07 21:05 | -37.56545 | -57.72457 | 9551 ft | 295 kts | 1° |
| 2026-05-07 21:05 | -37.54495 | -57.72303 | 9562 ft | 296 kts | 2° |
| 2026-05-07 21:05 | -37.52438 | -57.72139 | 9567 ft | 296 kts | 2° |
| 2026-05-07 21:05 | -37.50377 | -57.72008 | 9558 ft | 296 kts | 0° |
| 2026-05-07 21:06 | -37.48315 | -57.71897 | 9554 ft | 297 kts | 1° |
| 2026-05-07 21:06 | -37.46264 | -57.71738 | 9551 ft | 297 kts | 2° |
| 2026-05-07 21:06 | -37.44205 | -57.71553 | 9570 ft | 297 kts | 2° |
| 2026-05-07 21:06 | -37.42146 | -57.71381 | 9565 ft | 295 kts | 1° |
| 2026-05-07 21:07 | -37.40087 | -57.71229 | 9571 ft | 295 kts | 2° |
| 2026-05-07 21:07 | -37.38033 | -57.71063 | 10089 ft | 296 kts | 1° |
| 2026-05-07 21:07 | -37.35958 | -57.70940 | 10966 ft | 307 kts | 1° |
| 2026-05-07 21:07 | -37.33775 | -57.70797 | 11597 ft | 322 kts | 1° |
| 2026-05-07 21:08 | -37.31479 | -57.70619 | 12311 ft | 336 kts | 3° |
| 2026-05-07 21:08 | -37.29174 | -57.70414 | 13230 ft | 340 kts | 3° |
| 2026-05-07 21:08 | -37.26775 | -57.70197 | 14328 ft | 343 kts | 1° |
| 2026-05-07 21:08 | -37.24420 | -57.70000 | 15454 ft | 345 kts | 0° |
| 2026-05-07 21:09 | -37.22010 | -57.69800 | 16519 ft | 348 kts | 359° |
| 2026-05-07 21:09 | -37.19584 | -57.69621 | 17464 ft | 348 kts | 358° |
| 2026-05-07 21:09 | -37.17142 | -57.69445 | 18279 ft | 354 kts | 357° |
| 2026-05-07 21:09 | -37.14673 | -57.69279 | 19258 ft | 357 kts | 357° |
| 2026-05-07 21:10 | -37.12200 | -57.69091 | 20165 ft | 357 kts | 357° |
| 2026-05-07 21:10 | -37.09721 | -57.68881 | 21101 ft | 357 kts | 357° |
| 2026-05-07 21:10 | -37.07239 | -57.68709 | 21924 ft | 357 kts | 356° |
| 2026-05-07 21:10 | -37.04749 | -57.68519 | 22701 ft | 359 kts | 357° |
| 2026-05-07 21:11 | -37.02254 | -57.68312 | 23408 ft | 360 kts | 357° |
| 2026-05-07 21:11 | -36.99755 | -57.68135 | 24067 ft | 358 kts | 354° |
| 2026-05-07 21:11 | -36.94797 | -57.68629 | 25328 ft | 359 kts | 351° |
| 2026-05-07 21:12 | -36.92308 | -57.68869 | 25902 ft | 359 kts | 350° |
| 2026-05-07 21:12 | -36.89804 | -57.69141 | 26559 ft | 361 kts | 351° |
| 2026-05-07 21:12 | -36.87294 | -57.69385 | 27103 ft | 362 kts | 352° |
| 2026-05-07 21:12 | -36.84783 | -57.69624 | 27591 ft | 363 kts | 351° |
| 2026-05-07 21:13 | -36.82215 | -57.69892 | 28052 ft | 363 kts | 352° |
| 2026-05-07 21:13 | -36.79741 | -57.70142 | 28478 ft | 366 kts | 351° |
| 2026-05-07 21:13 | -36.77219 | -57.70409 | 29095 ft | 361 kts | 351° |
| 2026-05-07 21:13 | -36.74726 | -57.70687 | 29788 ft | 357 kts | 352° |
| 2026-05-07 21:14 | -36.72273 | -57.70931 | 30433 ft | 352 kts | 352° |
| 2026-05-07 21:14 | -36.69855 | -57.71181 | 30555 ft | 343 kts | 352° |
| 2026-05-07 21:14 | -36.65207 | -57.71643 | 30567 ft | 329 kts | 352° |
| 2026-05-07 21:15 | -36.60661 | -57.72129 | 30574 ft | 329 kts | 352° |
| 2026-05-07 21:15 | -36.56119 | -57.72614 | 30576 ft | 324 kts | 352° |
| 2026-05-07 21:16 | -36.51590 | -57.73096 | 30583 ft | 326 kts | 351° |
| 2026-05-07 21:16 | -36.47046 | -57.73555 | 30571 ft | 328 kts | 351° |
| 2026-05-07 21:17 | -36.42518 | -57.74065 | 30589 ft | 327 kts | 351° |
| 2026-05-07 21:17 | -36.37980 | -57.74534 | 30599 ft | 327 kts | 351° |
| 2026-05-07 21:18 | -36.33442 | -57.75006 | 30603 ft | 327 kts | 351° |
| 2026-05-07 21:18 | -36.28920 | -57.75471 | 30579 ft | 326 kts | 351° |
| 2026-05-07 21:19 | -36.24403 | -57.75936 | 30585 ft | 326 kts | 351° |
| 2026-05-07 21:19 | -36.19887 | -57.76410 | 30595 ft | 326 kts | 351° |
| 2026-05-07 21:20 | -36.15366 | -57.76877 | 30589 ft | 326 kts | 351° |
| 2026-05-07 21:20 | -36.10846 | -57.77347 | 30587 ft | 326 kts | 351° |
| 2026-05-07 21:21 | -36.06328 | -57.77816 | 30592 ft | 326 kts | 351° |
| 2026-05-07 21:21 | -36.01812 | -57.78263 | 30601 ft | 326 kts | 351° |
| 2026-05-07 21:22 | -35.97287 | -57.78712 | 30602 ft | 328 kts | 352° |
| 2026-05-07 21:22 | -35.92756 | -57.79199 | 30610 ft | 328 kts | 351° |
| 2026-05-07 21:23 | -35.88970 | -57.79593 | 30033 ft | 336 kts | 351° |
| 2026-05-07 21:23 | -35.86610 | -57.79835 | 28889 ft | 345 kts | 352° |
| 2026-05-07 21:23 | -35.83365 | -57.80179 | 27243 ft | 354 kts | 351° |
| 2026-05-07 21:24 | -35.81747 | -57.80375 | 26360 ft | 355 kts | 352° |
| 2026-05-07 21:24 | -35.79317 | -57.80610 | 25913 ft | 341 kts | 353° |
| 2026-05-07 21:24 | -35.76992 | -57.80862 | 25437 ft | 330 kts | 351° |
| 2026-05-07 21:24 | -35.74746 | -57.81102 | 25034 ft | 320 kts | 351° |
| 2026-05-07 21:25 | -35.72522 | -57.81350 | 24606 ft | 325 kts | 351° |
| 2026-05-07 21:25 | -35.70259 | -57.81595 | 24188 ft | 326 kts | 352° |
| 2026-05-07 21:25 | -35.67993 | -57.81811 | 23734 ft | 326 kts | 352° |
| 2026-05-07 21:25 | -35.65730 | -57.82026 | 23310 ft | 326 kts | 351° |
| 2026-05-07 21:26 | -35.63469 | -57.82269 | 22891 ft | 328 kts | 351° |
| 2026-05-07 21:26 | -35.61194 | -57.82483 | 22430 ft | 327 kts | 351° |
| 2026-05-07 21:26 | -35.58936 | -57.82720 | 22016 ft | 326 kts | 351° |
| 2026-05-07 21:26 | -35.56677 | -57.82958 | 21579 ft | 325 kts | 351° |
| 2026-05-07 21:27 | -35.54428 | -57.83194 | 21142 ft | 324 kts | 350° |
| 2026-05-07 21:27 | -35.52186 | -57.83437 | 20718 ft | 323 kts | 349° |
| 2026-05-07 21:27 | -35.49952 | -57.83706 | 20285 ft | 323 kts | 349° |
| 2026-05-07 21:27 | -35.47721 | -57.83975 | 19858 ft | 321 kts | 349° |
| 2026-05-07 21:28 | -35.45496 | -57.84240 | 19433 ft | 321 kts | 349° |
| 2026-05-07 21:28 | -35.43279 | -57.84503 | 19007 ft | 320 kts | 349° |
| 2026-05-07 21:28 | -35.41064 | -57.84766 | 18581 ft | 319 kts | 349° |
| 2026-05-07 21:28 | -35.38855 | -57.85025 | 18157 ft | 319 kts | 348° |
| 2026-05-07 21:29 | -35.36645 | -57.85281 | 17738 ft | 319 kts | 348° |
| 2026-05-07 21:29 | -35.34439 | -57.85540 | 17305 ft | 319 kts | 348° |
| 2026-05-07 21:29 | -35.32233 | -57.85800 | 16884 ft | 319 kts | 349° |
| 2026-05-07 21:29 | -35.30024 | -57.86061 | 16463 ft | 319 kts | 349° |
| 2026-05-07 21:30 | -35.27817 | -57.86318 | 16040 ft | 319 kts | 349° |
| 2026-05-07 21:30 | -35.25610 | -57.86576 | 15618 ft | 318 kts | 350° |
| 2026-05-07 21:30 | -35.23405 | -57.86837 | 15184 ft | 319 kts | 351° |
| 2026-05-07 21:30 | -35.21196 | -57.87092 | 14769 ft | 319 kts | 351° |
| 2026-05-07 21:31 | -35.18993 | -57.87348 | 14335 ft | 317 kts | 351° |
| 2026-05-07 21:31 | -35.16826 | -57.87597 | 13916 ft | 308 kts | 351° |
| 2026-05-07 21:31 | -35.14719 | -57.87843 | 13511 ft | 300 kts | 351° |
| 2026-05-07 21:31 | -35.12661 | -57.88082 | 13112 ft | 294 kts | 352° |
| 2026-05-07 21:32 | -35.10642 | -57.88317 | 12735 ft | 289 kts | 352° |
| 2026-05-07 21:32 | -35.08642 | -57.88551 | 12351 ft | 289 kts | 352° |
| 2026-05-07 21:32 | -35.06645 | -57.88784 | 11967 ft | 289 kts | 352° |
| 2026-05-07 21:32 | -35.04635 | -57.89018 | 11593 ft | 290 kts | 352° |
| 2026-05-07 21:33 | -35.02621 | -57.89258 | 11194 ft | 291 kts | 352° |
| 2026-05-07 21:33 | -35.00608 | -57.89491 | 10809 ft | 291 kts | 352° |
| 2026-05-07 21:33 | -34.98601 | -57.89722 | 10428 ft | 289 kts | 351° |
| 2026-05-07 21:33 | -34.96715 | -57.90442 | 10061 ft | 281 kts | 328° |
| 2026-05-07 21:34 | -34.95131 | -57.91846 | 9693 ft | 282 kts | 318° |
| 2026-05-07 21:34 | -34.93632 | -57.93390 | 9299 ft | 282 kts | 319° |
| 2026-05-07 21:34 | -34.92115 | -57.94893 | 8919 ft | 279 kts | 319° |
| 2026-05-07 21:34 | -34.90587 | -57.96373 | 8555 ft | 283 kts | 320° |
| 2026-05-07 21:35 | -34.89048 | -57.97836 | 8177 ft | 278 kts | 319° |
| 2026-05-07 21:35 | -34.87533 | -57.99302 | 7811 ft | 277 kts | 319° |
| 2026-05-07 21:35 | -34.86030 | -58.00728 | 7446 ft | 272 kts | 319° |
| 2026-05-07 21:35 | -34.84542 | -58.02137 | 7105 ft | 271 kts | 319° |
| 2026-05-07 21:36 | -34.83058 | -58.03545 | 6732 ft | 271 kts | 318° |
| 2026-05-07 21:36 | -34.81578 | -58.04950 | 6369 ft | 268 kts | 318° |
| 2026-05-07 21:36 | -34.80111 | -58.06333 | 6016 ft | 267 kts | 319° |
| 2026-05-07 21:36 | -34.78651 | -58.07699 | 5686 ft | 263 kts | 318° |
| 2026-05-07 21:37 | -34.77211 | -58.09060 | 5337 ft | 261 kts | 318° |
| 2026-05-07 21:37 | -34.75791 | -58.10399 | 5213 ft | 253 kts | 318° |
| 2026-05-07 21:37 | -34.74407 | -58.11702 | 5074 ft | 259 kts | 318° |
| 2026-05-07 21:37 | -34.72986 | -58.13041 | 4686 ft | 256 kts | 318° |
| 2026-05-07 21:38 | -34.71625 | -58.14316 | 4326 ft | 241 kts | 318° |
| 2026-05-07 21:38 | -34.70327 | -58.15532 | 4071 ft | 228 kts | 318° |
| 2026-05-07 21:38 | -34.69311 | -58.16883 | 3780 ft | 209 kts | 300° |
| 2026-05-07 21:38 | -34.68610 | -58.18371 | 3482 ft | 198 kts | 296° |
| 2026-05-07 21:39 | -34.67944 | -58.19794 | 3230 ft | 190 kts | 298° |
| 2026-05-07 21:39 | -34.67267 | -58.21129 | 2970 ft | 183 kts | 299° |
| 2026-05-07 21:39 | -34.66588 | -58.22388 | 2772 ft | 172 kts | 300° |
| 2026-05-07 21:39 | -34.65989 | -58.23507 | 2685 ft | 148 kts | 300° |
| 2026-05-07 21:40 | -34.65441 | -58.24496 | 2539 ft | 135 kts | 301° |
| 2026-05-07 21:40 | -34.64931 | -58.25385 | 2374 ft | 125 kts | 301° |
| 2026-05-07 21:40 | -34.64436 | -58.26246 | 2244 ft | 123 kts | 301° |
| 2026-05-07 21:40 | -34.63970 | -58.27105 | 2176 ft | 121 kts | 300° |
| 2026-05-07 21:41 | -34.63506 | -58.27964 | 2131 ft | 122 kts | 300° |
| 2026-05-07 21:41 | -34.63033 | -58.28828 | 2055 ft | 124 kts | 301° |
| 2026-05-07 21:41 | -34.62553 | -58.29696 | 1954 ft | 123 kts | 301° |
| 2026-05-07 21:41 | -34.62076 | -58.30562 | 1863 ft | 123 kts | 301° |
| 2026-05-07 21:42 | -34.61596 | -58.31425 | 1792 ft | 124 kts | 301° |
| 2026-05-07 21:42 | -34.61105 | -58.32283 | 1719 ft | 124 kts | 302° |
| 2026-05-07 21:42 | -34.60619 | -58.33155 | 1585 ft | 126 kts | 301° |
| 2026-05-07 21:42 | -34.60135 | -58.34039 | 1392 ft | 126 kts | 301° |
| 2026-05-07 21:43 | -34.59641 | -58.34924 | 1175 ft | 127 kts | 302° |
| 2026-05-07 21:43 | -34.59151 | -58.35803 | 989 ft | 125 kts | 302° |
| 2026-05-07 21:43 | -34.58664 | -58.36674 | 821 ft | 125 kts | 302° |
| 2026-05-07 21:43 | -34.58179 | -58.37546 | 665 ft | 125 kts | 302° |
| 2026-05-07 21:44 | -34.57692 | -58.38426 | 473 ft | 128 kts | 304° |
| 2026-05-07 21:44 | -34.57112 | -58.39441 | 332 ft | 171 kts | 301° |
| 2026-05-07 21:44 | -34.56482 | -58.40579 | 127 ft | 147 kts | 302° |
| 2026-05-07 21:44 | -34.55970 | -58.41502 | 26 ft | 114 kts | 304° |
| 2026-05-07 21:45 | -34.55652 | -58.42068 | 26 ft | 54 kts | 304° |
| 2026-05-07 21:45 | -34.55467 | -58.42398 | 27 ft | 34 kts | 306° |
| 2026-05-07 21:45 | -34.55379 | -58.42499 | 26 ft | 8 kts | 30° |
| 2026-05-07 21:45 | -34.55364 | -58.42452 | 27 ft | 3 kts | 83° |
| 2026-05-07 21:46 | -34.55362 | -58.42417 | 25 ft | 0 kts | 88° |
| 2026-05-07 21:46 | -34.55361 | -58.42412 | 25 ft | 1 kts | 89° |
| 2026-05-07 21:46 | -34.55362 | -58.42403 | 25 ft | 1 kts | 92° |
| 2026-05-07 21:46 | -34.55365 | -58.42390 | 25 ft | 4 kts | 104° |
| 2026-05-07 21:47 | -34.55368 | -58.42382 | 25 ft | 2 kts | 112° |
| 2026-05-07 21:47 | -34.55374 | -58.42368 | 25 ft | 0 kts | 116° |
| 2026-05-07 21:47 | -34.55374 | -58.42367 | 28 ft | 0 kts | 116° |
| 2026-05-07 21:47 | -34.55380 | -58.42356 | 28 ft | 3 kts | 122° |
| 2026-05-07 21:48 | -34.55405 | -58.42313 | 27 ft | 10 kts | 127° |
| 2026-05-07 21:48 | -34.55457 | -58.42230 | 29 ft | 14 kts | 126° |
| 2026-05-07 21:48 | -34.55520 | -58.42127 | 29 ft | 16 kts | 127° |
| 2026-05-07 21:48 | -34.55590 | -58.42009 | 30 ft | 15 kts | 124° |
| 2026-05-07 21:49 | -34.55657 | -58.41894 | 28 ft | 18 kts | 126° |
| 2026-05-07 21:49 | -34.55729 | -58.41759 | 28 ft | 20 kts | 119° |
| 2026-05-07 21:49 | -34.55791 | -58.41618 | 29 ft | 20 kts | 116° |
| 2026-05-07 21:49 | -34.55855 | -58.41463 | 25 ft | 21 kts | 117° |
| 2026-05-07 21:50 | -34.55895 | -58.41313 | 26 ft | 19 kts | 66° |
| 2026-05-07 21:50 | -34.55813 | -58.41322 | 29 ft | 15 kts | 303° |
| 2026-05-07 21:50 | -34.55765 | -58.41379 | 26 ft | 4 kts | 10° |
| 2026-05-07 21:50 | -34.55740 | -58.41363 | 26 ft | 0 kts | 31° |